Time;durP1;ratioP1;P1;durP2;ratioP2;P2;SDS_P1;SDS_P2;PMS_P1;PMS_P2;Temp;Humidity;BMP_temperature;BMP_pressure;BME280_temperature;BME280_humidity;BME280_pressure;Samples;Min_cycle;Max_cycle;Signal;HPM_P1;HPM_P2
2022/12/03 00:00:17;;;;;;;;;;;;;;;;;;7375117;19;1720;-68
2022/12/03 00:02:47;;;;;;;;;;;;;;;;;;7373863;19;1814;-68
2022/12/03 00:05:15;;;;;;;;;;;;;;;;;;7367691;19;1267;-68
2022/12/03 00:07:44;;;;;;;;;;;;;;;;;;7367033;19;815;-68
2022/12/03 00:10:12;;;;;;;;;;;;;;;;;;7366346;19;805;-68
2022/12/03 00:12:40;;;;;;;;;;;;;;;;;;7368089;19;816;-68
2022/12/03 00:15:08;;;;;;;;;;;;;;;;;;7366164;19;1267;-68
2022/12/03 00:17:36;;;;;;;;;;;;;;;;;;7366924;19;837;-69
2022/12/03 00:20:04;;;;;;;;;;;;;;;;;;7367649;19;839;-69
2022/12/03 00:22:33;;;;;;;;;;;;;;;;;;7365935;19;1841;-69
2022/12/03 00:25:01;;;;;;;;;;;;;;;;;;7368603;19;1324;-69
2022/12/03 00:27:29;;;;;;;;;;;;;;;;;;7369525;19;1842;-68
2022/12/03 00:29:57;;;;;;;;;;;;;;;;;;7367512;19;881;-68
2022/12/03 00:32:25;;;;;;;;;;;;;;;;;;7365713;19;790;-68
2022/12/03 00:34:53;;;;;;;;;;;;;;;;;;7366566;19;1331;-68
2022/12/03 00:37:22;;;;;;;;;;;;;;;;;;7371896;19;1800;-68
2022/12/03 00:39:50;;;;;;;;;;;;;;;;;;7366868;19;835;-68
2022/12/03 00:42:18;;;;;;;;;;;;;;;;;;7364900;19;1850;-68
2022/12/03 00:44:46;;;;;;;;;;;;;;;;;;7368433;19;2015;-68
2022/12/03 00:47:14;;;;;;;;;;;;;;;;;;7366679;19;890;-69
2022/12/03 00:49:42;;;;;;;;;;;;;;;;;;7366403;19;1018;-68
2022/12/03 00:52:11;;;;;;;;;;;;;;;;;;7366491;19;859;-69
2022/12/03 00:54:39;;;;;;;;;;;;;;;;;;7365534;19;1334;-68
2022/12/03 00:57:07;;;;;;;;;;;;;;;;;;7369935;19;1821;-68
2022/12/03 00:59:35;;;;;;;;;;;;;;;;;;7365707;19;808;-69
2022/12/03 01:02:03;;;;;;;;;;;;;;;;;;7365553;19;1841;-68
2022/12/03 01:04:32;;;;;;;;;;;;;;;;;;7368791;19;1542;-68
2022/12/03 01:07:00;;;;;;;;;;;;;;;;;;7365882;19;871;-68
2022/12/03 01:09:28;;;;;;;;;;;;;;;;;;7365584;19;808;-68
2022/12/03 01:11:57;;;;;;;;;;;;;;;;;;7367445;19;2016;-68
2022/12/03 01:14:25;;;;;;;;;;;;;;;;;;7365484;19;1332;-67
2022/12/03 01:16:53;;;;;;;;;;;;;;;;;;7365423;19;880;-67
2022/12/03 01:19:21;;;;;;;;;;;;;;;;;;7364980;19;1138;-67
2022/12/03 01:21:49;;;;;;;;;;;;;;;;;;7365362;19;1827;-67
2022/12/03 01:24:17;;;;;;;;;;;;;;;;;;7365121;19;1345;-68
2022/12/03 01:26:45;;;;;;;;;;;;;;;;;;7365974;19;791;-68
2022/12/03 01:29:14;;;;;;;;;;;;;;;;;;7363687;19;845;-68
2022/12/03 01:34:22;;;;;;;;;;;;;;;;;;7366071;19;1321;-68
2022/12/03 01:36:51;;;;;;;;;;;;;;;;;;7365545;19;799;-68
2022/12/03 01:39:19;;;;;;;;;;;;;;;;;;7364602;19;847;-69
2022/12/03 01:41:47;;;;;;;;;;;;;;;;;;7365196;19;1833;-68
2022/12/03 01:44:16;;;;;;;;;;;;;;;;;;7364266;19;1271;-68
2022/12/03 01:46:44;;;;;;;;;;;;;;;;;;7365335;19;807;-68
2022/12/03 01:49:12;;;;;;;;;;;;;;;;;;7364515;19;889;-68
2022/12/03 01:51:40;;;;;;;;;;;;;;;;;;7368500;19;1824;-68
2022/12/03 01:54:08;;;;;;;;;;;;;;;;;;7364358;19;1336;-67
2022/12/03 01:56:37;;;;;;;;;;;;;;;;;;7364265;19;839;-68
2022/12/03 01:59:05;;;;;;;;;;;;;;;;;;7365590;19;794;-67
2022/12/03 02:01:33;;;;;;;;;;;;;;;;;;7371578;19;820;-68
2022/12/03 02:04:01;;;;;;;;;;;;;;;;;;7370849;19;831;-68
2022/12/03 02:06:29;;;;;;;;;;;;;;;;;;7373002;19;1981;-67
2022/12/03 02:08:59;;;;;;;;;;;;;;;;;;7370502;19;1872;-68
2022/12/03 02:11:27;;;;;;;;;;;;;;;;;;7370461;19;1832;-67
2022/12/03 02:13:55;;;;;;;;;;;;;;;;;;7371199;19;808;-68
2022/12/03 02:16:24;;;;;;;;;;;;;;;;;;7368487;19;1334;-67
2022/12/03 02:18:52;;;;;;;;;;;;;;;;;;7370117;19;827;-67
2022/12/03 02:21:20;;;;;;;;;;;;;;;;;;7370159;19;2047;-67
2022/12/03 02:23:48;;;;;;;;;;;;;;;;;;7368748;19;1841;-67
2022/12/03 02:26:16;;;;;;;;;;;;;;;;;;7370211;19;2021;-68
2022/12/03 02:28:44;;;;;;;;;;;;;;;;;;7370004;19;810;-67
2022/12/03 02:31:13;;;;;;;;;;;;;;;;;;7369884;19;835;-67
2022/12/03 02:33:41;;;;;;;;;;;;;;;;;;7370108;19;802;-68
2022/12/03 02:36:09;;;;;;;;;;;;;;;;;;7368177;19;1314;-68
2022/12/03 02:38:37;;;;;;;;;;;;;;;;;;7369208;19;909;-68
2022/12/03 02:41:05;;;;;;;;;;;;;;;;;;7370983;19;862;-68
2022/12/03 02:43:31;;;;;;;;;;;;;;;;;;7368461;19;1834;-68
2022/12/03 02:45:59;;;;;;;;;;;;;;;;;;7369360;19;2180;-67
2022/12/03 02:48:27;;;;;;;;;;;;;;;;;;7369136;19;843;-67
2022/12/03 02:50:55;;;;;;;;;;;;;;;;;;7370274;19;827;-68
2022/12/03 02:53:24;;;;;;;;;;;;;;;;;;7369709;19;806;-68
2022/12/03 02:55:52;;;;;;;;;;;;;;;;;;7367711;19;1319;-67
2022/12/03 02:58:20;;;;;;;;;;;;;;;;;;7368687;19;847;-68
2022/12/03 03:00:48;;;;;;;;;;;;;;;;;;7370160;19;890;-68
2022/12/03 03:03:16;;;;;;;;;;;;;;;;;;7369595;19;1854;-67
2022/12/03 03:05:45;;;;;;;;;;;;;;;;;;7367543;19;1279;-68
2022/12/03 03:08:13;;;;;;;;;;;;;;;;;;7371730;19;2019;-67
2022/12/03 03:10:41;;;;;;;;;;;;;;;;;;7368488;19;863;-67
2022/12/03 03:13:09;;;;;;;;;;;;;;;;;;7368558;19;847;-67
2022/12/03 03:15:37;;;;;;;;;;;;;;;;;;7368789;19;1343;-67
2022/12/03 03:18:05;;;;;;;;;;;;;;;;;;7367591;19;856;-68
2022/12/03 03:20:34;;;;;;;;;;;;;;;;;;7371850;19;1810;-68
2022/12/03 03:23:02;;;;;;;;;;;;;;;;;;7368128;19;1845;-68
2022/12/03 03:25:30;;;;;;;;;;;;;;;;;;7366631;19;1227;-68
2022/12/03 03:27:58;;;;;;;;;;;;;;;;;;7370325;19;1828;-68
2022/12/03 03:30:27;;;;;;;;;;;;;;;;;;7369153;19;832;-68
2022/12/03 03:32:55;;;;;;;;;;;;;;;;;;7369742;19;851;-68
2022/12/03 03:35:23;;;;;;;;;;;;;;;;;;7367581;19;1325;-68
2022/12/03 03:37:52;;;;;;;;;;;;;;;;;;7368624;19;848;-67
2022/12/03 03:40:20;;;;;;;;;;;;;;;;;;7369635;19;840;-67
2022/12/03 03:42:48;;;;;;;;;;;;;;;;;;7367983;19;1834;-70
2022/12/03 03:45:16;;;;;;;;;;;;;;;;;;7368688;19;1330;-69
2022/12/03 03:47:44;;;;;;;;;;;;;;;;;;7378396;19;1822;-67
2022/12/03 03:50:12;;;;;;;;;;;;;;;;;;7377913;19;885;-69
2022/12/03 03:52:41;;;;;;;;;;;;;;;;;;7379228;19;729;-70
2022/12/03 03:55:09;;;;;;;;;;;;;;;;;;7377733;19;1278;-70
2022/12/03 03:57:37;;;;;;;;;;;;;;;;;;7380980;19;1828;-68
2022/12/03 04:00:05;;;;;;;;;;;;;;;;;;7371489;19;765;-68
2022/12/03 04:02:34;;;;;;;;;;;;;;;;;;7371178;19;1857;-67
2022/12/03 04:05:02;;;;;;;;;;;;;;;;;;7369617;19;1295;-68
2022/12/03 04:07:30;;;;;;;;;;;;;;;;;;7372126;19;901;-68
2022/12/03 04:09:58;;;;;;;;;;;;;;;;;;7375455;19;1754;-68
2022/12/03 04:15:16;;;;;;;;;;;;;;;;;;7368387;19;1275;-67
2022/12/03 04:17:44;;;;;;;;;;;;;;;;;;7371432;19;896;-67
2022/12/03 04:20:12;;;;;;;;;;;;;;;;;;7372032;19;871;-67
2022/12/03 04:22:41;;;;;;;;;;;;;;;;;;7368522;19;2065;-67
2022/12/03 04:30:33;;;;;;;;;;;;;;;;;;7371319;19;1755;-68
2022/12/03 04:35:44;;;;;;;;;;;;;;;;;;7364997;19;1262;-67
2022/12/03 04:38:13;;;;;;;;;;;;;;;;;;7366688;19;813;-68
2022/12/03 04:43:21;;;;;;;;;;;;;;;;;;7364808;19;1852;-68
2022/12/03 04:45:49;;;;;;;;;;;;;;;;;;7364021;19;1414;-69
2022/12/03 04:48:18;;;;;;;;;;;;;;;;;;7365754;19;880;-68
2022/12/03 04:50:46;;;;;;;;;;;;;;;;;;7368872;19;2062;-68
2022/12/03 04:53:15;;;;;;;;;;;;;;;;;;7367256;19;842;-68
2022/12/03 04:55:43;;;;;;;;;;;;;;;;;;7364812;19;1685;-68
2022/12/03 04:58:11;;;;;;;;;;;;;;;;;;7366153;19;995;-68
2022/12/03 05:00:39;;;;;;;;;;;;;;;;;;7366588;19;855;-68
2022/12/03 05:03:07;;;;;;;;;;;;;;;;;;7365814;19;1846;-68
2022/12/03 05:05:35;;;;;;;;;;;;;;;;;;7364132;19;1322;-68
2022/12/03 05:08:03;;;;;;;;;;;;;;;;;;7364001;19;1569;-68
2022/12/03 05:10:32;;;;;;;;;;;;;;;;;;7366354;19;2051;-68
2022/12/03 05:13:00;;;;;;;;;;;;;;;;;;7367466;19;2097;-67
2022/12/03 05:15:28;;;;;;;;;;;;;;;;;;7364143;19;1827;-68
2022/12/03 05:17:56;;;;;;;;;;;;;;;;;;7365021;19;868;-68
2022/12/03 05:23:05;;;;;;;;;;;;;;;;;;7364116;19;1853;-68
2022/12/03 05:25:33;;;;;;;;;;;;;;;;;;7362478;19;1279;-68
2022/12/03 05:28:01;;;;;;;;;;;;;;;;;;7364791;19;855;-68
2022/12/03 05:30:29;;;;;;;;;;;;;;;;;;7367915;19;1681;-69
2022/12/03 05:32:58;;;;;;;;;;;;;;;;;;7368886;19;2042;-68
2022/12/03 05:35:26;;;;;;;;;;;;;;;;;;7369064;19;1279;-67
2022/12/03 05:37:54;;;;;;;;;;;;;;;;;;7371559;19;878;-68
2022/12/03 05:40:22;;;;;;;;;;;;;;;;;;7371263;19;874;-68
2022/12/03 05:42:54;;;;;;;;;;;;;;;;;;7372567;19;1845;-69
2022/12/03 05:45:22;;;;;;;;;;;;;;;;;;7370869;19;1298;-68
2022/12/03 05:47:50;;;;;;;;;;;;;;;;;;7369806;19;840;-68
2022/12/03 05:50:18;;;;;;;;;;;;;;;;;;7371115;19;993;-69
2022/12/03 05:52:46;;;;;;;;;;;;;;;;;;7370646;19;831;-68
2022/12/03 05:55:14;;;;;;;;;;;;;;;;;;7368797;19;1271;-69
2022/12/03 05:57:43;;;;;;;;;;;;;;;;;;7371062;19;1844;-68
2022/12/03 06:00:11;;;;;;;;;;;;;;;;;;7373216;19;1757;-68
2022/12/03 06:02:40;;;;;;;;;;;;;;;;;;7371132;19;894;-68
2022/12/03 06:05:08;;;;;;;;;;;;;;;;;;7370303;19;1278;-68
2022/12/03 06:07:36;;;;;;;;;;;;;;;;;;7370478;19;840;-68
2022/12/03 06:10:04;;;;;;;;;;;;;;;;;;7370391;19;783;-69
2022/12/03 06:12:33;;;;;;;;;;;;;;;;;;7370465;19;808;-68
2022/12/03 06:15:01;;;;;;;;;;;;;;;;;;7369618;19;1271;-68
2022/12/03 06:17:29;;;;;;;;;;;;;;;;;;7370423;19;1835;-69
2022/12/03 06:19:57;;;;;;;;;;;;;;;;;;7375050;19;2008;-68
2022/12/03 06:22:25;;;;;;;;;;;;;;;;;;7369898;19;850;-68
2022/12/03 06:24:53;;;;;;;;;;;;;;;;;;7368122;19;1850;-68
2022/12/03 06:27:22;;;;;;;;;;;;;;;;;;7371447;19;863;-68
2022/12/03 06:29:50;;;;;;;;;;;;;;;;;;7370160;19;836;-67
2022/12/03 06:32:18;;;;;;;;;;;;;;;;;;7371361;19;828;-68
2022/12/03 06:34:46;;;;;;;;;;;;;;;;;;7370327;19;1266;-68
2022/12/03 06:37:14;;;;;;;;;;;;;;;;;;7373069;19;804;-68
2022/12/03 06:39:43;;;;;;;;;;;;;;;;;;7374697;19;1818;-69
2022/12/03 06:42:11;;;;;;;;;;;;;;;;;;7373637;19;2049;-69
2022/12/03 06:44:39;;;;;;;;;;;;;;;;;;7370250;19;1853;-68
2022/12/03 06:47:07;;;;;;;;;;;;;;;;;;7371176;19;823;-68
2022/12/03 06:49:35;;;;;;;;;;;;;;;;;;7371759;19;859;-68
2022/12/03 06:52:03;;;;;;;;;;;;;;;;;;7373366;19;1842;-68
2022/12/03 06:54:32;;;;;;;;;;;;;;;;;;7370766;19;1295;-68
2022/12/03 06:57:00;;;;;;;;;;;;;;;;;;7371882;19;781;-70
2022/12/03 06:59:28;;;;;;;;;;;;;;;;;;7371260;19;1832;-67
2022/12/03 07:01:56;;;;;;;;;;;;;;;;;;7370169;19;816;-67
2022/12/03 07:04:24;;;;;;;;;;;;;;;;;;7369540;19;1833;-70
2022/12/03 07:06:52;;;;;;;;;;;;;;;;;;7370426;19;819;-69
2022/12/03 07:09:20;;;;;;;;;;;;;;;;;;7369427;19;765;-69
2022/12/03 07:11:49;;;;;;;;;;;;;;;;;;7371287;19;800;-69
2022/12/03 07:14:17;;;;;;;;;;;;;;;;;;7370533;19;1648;-70
2022/12/03 07:16:45;;;;;;;;;;;;;;;;;;7371398;19;622;-68
2022/12/03 07:19:13;;;;;;;;;;;;;;;;;;7370030;19;878;-68
2022/12/03 07:21:41;;;;;;;;;;;;;;;;;;7370749;19;821;-70
2022/12/03 07:24:09;;;;;;;;;;;;;;;;;;7369827;19;1844;-68
2022/12/03 07:26:38;;;;;;;;;;;;;;;;;;7369996;19;818;-68
2022/12/03 07:29:06;;;;;;;;;;;;;;;;;;7368894;19;832;-68
2022/12/03 07:31:34;;;;;;;;;;;;;;;;;;7372946;19;1934;-68
2022/12/03 07:34:02;;;;;;;;;;;;;;;;;;7372183;19;2024;-67
2022/12/03 07:36:30;;;;;;;;;;;;;;;;;;7366704;19;794;-68
2022/12/03 07:38:58;;;;;;;;;;;;;;;;;;7369310;19;831;-69
2022/12/03 07:41:26;;;;;;;;;;;;;;;;;;7368370;19;826;-69
2022/12/03 07:43:55;;;;;;;;;;;;;;;;;;7368159;19;1852;-69
2022/12/03 07:46:23;;;;;;;;;;;;;;;;;;7366924;19;1276;-68
2022/12/03 07:48:51;;;;;;;;;;;;;;;;;;7369247;19;840;-69
2022/12/03 07:51:19;;;;;;;;;;;;;;;;;;7370650;19;2093;-68
2022/12/03 07:53:47;;;;;;;;;;;;;;;;;;7373410;19;2350;-68
2022/12/03 07:56:15;;;;;;;;;;;;;;;;;;7365174;19;1322;-68
2022/12/03 07:58:43;;;;;;;;;;;;;;;;;;7369046;19;879;-70
2022/12/03 08:01:12;;;;;;;;;;;;;;;;;;7372858;19;1068;-68
2022/12/03 08:03:41;;;;;;;;;;;;;;;;;;7369092;19;1846;-69
2022/12/03 08:06:09;;;;;;;;;;;;;;;;;;7367202;19;1318;-69
2022/12/03 08:08:38;;;;;;;;;;;;;;;;;;7368270;19;872;-68
2022/12/03 08:11:06;;;;;;;;;;;;;;;;;;7369937;19;1827;-69
2022/12/03 08:13:34;;;;;;;;;;;;;;;;;;7369429;19;788;-68
2022/12/03 08:16:02;;;;;;;;;;;;;;;;;;7366030;19;1302;-68
2022/12/03 08:18:30;;;;;;;;;;;;;;;;;;7368764;19;824;-69
2022/12/03 08:20:58;;;;;;;;;;;;;;;;;;7368976;19;863;-68
2022/12/03 08:23:27;;;;;;;;;;;;;;;;;;7367814;19;1867;-68
2022/12/03 08:26:00;;;;;;;;;;;;;;;;;;7366659;19;1259;-68
2022/12/03 08:28:29;;;;;;;;;;;;;;;;;;7368971;19;747;-68
2022/12/03 08:30:57;;;;;;;;;;;;;;;;;;7370021;19;714;-68
2022/12/03 08:33:25;;;;;;;;;;;;;;;;;;7374348;19;1812;-69
2022/12/03 08:35:53;;;;;;;;;;;;;;;;;;7366555;19;1279;-68
2022/12/03 08:38:22;;;;;;;;;;;;;;;;;;7367953;19;1565;-68
2022/12/03 08:40:50;;;;;;;;;;;;;;;;;;7367684;19;820;-68
2022/12/03 08:43:18;;;;;;;;;;;;;;;;;;7367134;19;848;-68
2022/12/03 08:45:48;;;;;;;;;;;;;;;;;;7364372;19;1845;-68
2022/12/03 08:48:16;;;;;;;;;;;;;;;;;;7367397;19;934;-68
2022/12/03 08:50:44;;;;;;;;;;;;;;;;;;7367590;19;879;-68
2022/12/03 08:53:12;;;;;;;;;;;;;;;;;;7370239;19;1819;-68
2022/12/03 08:55:41;;;;;;;;;;;;;;;;;;7365212;19;1266;-68
2022/12/03 08:58:09;;;;;;;;;;;;;;;;;;7366339;19;776;-68
2022/12/03 09:00:37;;;;;;;;;;;;;;;;;;7368021;19;2058;-69
2022/12/03 09:03:05;;;;;;;;;;;;;;;;;;7367399;19;817;-69
2022/12/03 09:05:33;;;;;;;;;;;;;;;;;;7365166;19;1842;-69
2022/12/03 09:08:01;;;;;;;;;;;;;;;;;;7368173;19;803;-69
2022/12/03 09:10:30;;;;;;;;;;;;;;;;;;7374138;19;775;-70
2022/12/03 09:12:58;;;;;;;;;;;;;;;;;;7374738;19;1838;-69
2022/12/03 09:15:27;;;;;;;;;;;;;;;;;;7377391;19;1815;-69
2022/12/03 09:17:55;;;;;;;;;;;;;;;;;;7373338;19;837;-70
2022/12/03 09:20:23;;;;;;;;;;;;;;;;;;7376027;19;826;-70
2022/12/03 09:22:51;;;;;;;;;;;;;;;;;;7377575;19;2073;-69
2022/12/03 09:25:19;;;;;;;;;;;;;;;;;;7377785;19;2050;-69
2022/12/03 09:27:48;;;;;;;;;;;;;;;;;;7375593;19;1705;-69
2022/12/03 09:30:16;;;;;;;;;;;;;;;;;;7378675;19;1641;-70
2022/12/03 09:32:44;;;;;;;;;;;;;;;;;;7380312;19;2008;-66
2022/12/03 09:35:13;;;;;;;;;;;;;;;;;;7378039;19;1691;-68
2022/12/03 09:37:41;;;;;;;;;;;;;;;;;;7378018;19;1582;-70
2022/12/03 09:40:09;;;;;;;;;;;;;;;;;;7374763;19;785;-68
2022/12/03 09:42:37;;;;;;;;;;;;;;;;;;7373832;19;810;-68
2022/12/03 09:45:05;;;;;;;;;;;;;;;;;;7375255;19;1855;-67
2022/12/03 09:47:34;;;;;;;;;;;;;;;;;;7373197;19;850;-69
2022/12/03 09:50:02;;;;;;;;;;;;;;;;;;7374368;19;2020;-69
2022/12/03 09:52:30;;;;;;;;;;;;;;;;;;7377773;19;1851;-69
2022/12/03 09:54:58;;;;;;;;;;;;;;;;;;7372386;19;1330;-70
2022/12/03 09:57:26;;;;;;;;;;;;;;;;;;7372206;19;855;-71
2022/12/03 09:59:54;;;;;;;;;;;;;;;;;;7370039;19;856;-70
2022/12/03 10:02:23;;;;;;;;;;;;;;;;;;7372760;19;851;-68
2022/12/03 10:04:51;;;;;;;;;;;;;;;;;;7372560;19;1842;-71
2022/12/03 10:07:19;;;;;;;;;;;;;;;;;;7373249;19;1819;-70
2022/12/03 10:09:47;;;;;;;;;;;;;;;;;;7374143;19;2048;-70
2022/12/03 10:12:15;;;;;;;;;;;;;;;;;;7373027;19;852;-69
2022/12/03 10:14:43;;;;;;;;;;;;;;;;;;7372711;19;1838;-68
2022/12/03 10:17:12;;;;;;;;;;;;;;;;;;7375502;19;1755;-69
2022/12/03 10:19:41;;;;;;;;;;;;;;;;;;7370195;19;781;-69
2022/12/03 10:22:09;;;;;;;;;;;;;;;;;;7371693;19;819;-69
2022/12/03 10:24:37;;;;;;;;;;;;;;;;;;7371159;19;1856;-68
2022/12/03 10:27:05;;;;;;;;;;;;;;;;;;7375729;19;2218;-69
2022/12/03 10:29:34;;;;;;;;;;;;;;;;;;7369799;19;838;-68
2022/12/03 10:32:02;;;;;;;;;;;;;;;;;;7373180;19;637;-68
2022/12/03 10:34:32;;;;;;;;;;;;;;;;;;7376272;19;1381;-69
2022/12/03 10:37:00;;;;;;;;;;;;;;;;;;7381242;19;878;-68
2022/12/03 10:39:28;;;;;;;;;;;;;;;;;;7381160;19;836;-69
2022/12/03 10:41:56;;;;;;;;;;;;;;;;;;7382407;19;985;-68
2022/12/03 10:44:26;;;;;;;;;;;;;;;;;;7381535;19;1822;-69
2022/12/03 10:46:54;;;;;;;;;;;;;;;;;;7379573;19;919;-69
2022/12/03 10:49:22;;;;;;;;;;;;;;;;;;7374260;19;788;-70
2022/12/03 10:51:50;;;;;;;;;;;;;;;;;;7374813;19;789;-70
2022/12/03 10:54:18;;;;;;;;;;;;;;;;;;7373985;19;1307;-69
2022/12/03 10:56:47;;;;;;;;;;;;;;;;;;7373140;19;791;-69
2022/12/03 10:59:15;;;;;;;;;;;;;;;;;;7372356;19;824;-69
2022/12/03 11:01:43;;;;;;;;;;;;;;;;;;7371035;19;759;-69
2022/12/03 11:04:11;;;;;;;;;;;;;;;;;;7372954;19;1276;-69
2022/12/03 11:06:39;;;;;;;;;;;;;;;;;;7370875;19;840;-70
2022/12/03 11:09:08;;;;;;;;;;;;;;;;;;7371247;19;1995;-69
2022/12/03 11:11:36;;;;;;;;;;;;;;;;;;7371947;19;2156;-70
2022/12/03 11:14:04;;;;;;;;;;;;;;;;;;7375206;19;2141;-71
2022/12/03 11:16:32;;;;;;;;;;;;;;;;;;7369909;19;823;-70
2022/12/03 11:19:01;;;;;;;;;;;;;;;;;;7373651;19;1802;-70
2022/12/03 11:21:29;;;;;;;;;;;;;;;;;;7370299;19;931;-69
2022/12/03 11:23:57;;;;;;;;;;;;;;;;;;7371049;19;2002;-69
2022/12/03 11:26:26;;;;;;;;;;;;;;;;;;7367394;19;1837;-70
2022/12/03 11:28:54;;;;;;;;;;;;;;;;;;7369398;19;796;-70
2022/12/03 11:31:22;;;;;;;;;;;;;;;;;;7367411;19;818;-69
2022/12/03 11:33:50;;;;;;;;;;;;;;;;;;7369914;19;910;-70
2022/12/03 11:36:19;;;;;;;;;;;;;;;;;;7367724;19;1322;-70
2022/12/03 11:38:47;;;;;;;;;;;;;;;;;;7368937;19;887;-70
2022/12/03 11:41:15;;;;;;;;;;;;;;;;;;7373899;19;1868;-70
2022/12/03 11:43:43;;;;;;;;;;;;;;;;;;7372174;19;843;-70
2022/12/03 11:46:11;;;;;;;;;;;;;;;;;;7369108;19;1850;-71
2022/12/03 11:48:39;;;;;;;;;;;;;;;;;;7370676;19;744;-70
2022/12/03 11:51:08;;;;;;;;;;;;;;;;;;7370300;19;887;-68
2022/12/03 11:53:55;;;;;;;;;;;;;;;;;;7400317;19;1351;-71
2022/12/03 11:56:24;;;;;;;;;;;;;;;;;;7400647;19;1290;-68
2022/12/03 11:58:52;;;;;;;;;;;;;;;;;;7402277;19;823;-69
2022/12/03 12:01:20;;;;;;;;;;;;;;;;;;7403982;19;822;-69
2022/12/03 12:03:48;;;;;;;;;;;;;;;;;;7403825;19;764;-71
2022/12/03 12:06:16;;;;;;;;;;;;;;;;;;7401900;19;1249;-68
2022/12/03 12:08:45;;;;;;;;;;;;;;;;;;7404271;19;1658;-71
2022/12/03 12:11:13;;;;;;;;;;;;;;;;;;7402394;19;816;-69
2022/12/03 12:13:41;;;;;;;;;;;;;;;;;;7400702;19;1849;-69
2022/12/03 12:16:09;;;;;;;;;;;;;;;;;;7400635;19;1337;-71
2022/12/03 12:18:37;;;;;;;;;;;;;;;;;;7404430;19;1812;-72
2022/12/03 12:21:06;;;;;;;;;;;;;;;;;;7402412;19;833;-69
2022/12/03 12:23:34;;;;;;;;;;;;;;;;;;7402041;19;982;-70
2022/12/03 12:26:02;;;;;;;;;;;;;;;;;;7398037;19;1302;-70
2022/12/03 12:28:30;;;;;;;;;;;;;;;;;;7399769;19;934;-70
2022/12/03 12:30:58;;;;;;;;;;;;;;;;;;7401028;19;812;-70
2022/12/03 12:33:27;;;;;;;;;;;;;;;;;;7399017;19;1838;-69
2022/12/03 12:35:55;;;;;;;;;;;;;;;;;;7399306;19;1227;-69
2022/12/03 12:38:23;;;;;;;;;;;;;;;;;;7401724;19;1807;-69
2022/12/03 12:40:51;;;;;;;;;;;;;;;;;;7400851;19;1665;-69
2022/12/03 12:43:19;;;;;;;;;;;;;;;;;;7400553;19;827;-68
2022/12/03 12:45:47;;;;;;;;;;;;;;;;;;7399304;19;1293;-69
2022/12/03 12:48:17;;;;;;;;;;;;;;;;;;7400498;19;945;-68
2022/12/03 12:50:45;;;;;;;;;;;;;;;;;;7401006;19;807;-70
2022/12/03 12:53:13;;;;;;;;;;;;;;;;;;7399823;19;1845;-70
2022/12/03 12:55:41;;;;;;;;;;;;;;;;;;7399587;19;1325;-69
2022/12/03 12:58:10;;;;;;;;;;;;;;;;;;7400529;19;850;-70
2022/12/03 13:00:38;;;;;;;;;;;;;;;;;;7400017;19;900;-69
2022/12/03 13:03:06;;;;;;;;;;;;;;;;;;7395229;19;782;-69
2022/12/03 13:05:34;;;;;;;;;;;;;;;;;;7369644;19;1333;-69
2022/12/03 13:08:02;;;;;;;;;;;;;;;;;;7371472;19;794;-69
2022/12/03 13:10:31;;;;;;;;;;;;;;;;;;7369854;19;790;-70
2022/12/03 13:13:01;;;;;;;;;;;;;;;;;;7370584;19;1857;-70
2022/12/03 13:15:29;;;;;;;;;;;;;;;;;;7373552;19;1821;-67
2022/12/03 13:17:57;;;;;;;;;;;;;;;;;;7371092;19;929;-68
2022/12/03 13:20:25;;;;;;;;;;;;;;;;;;7371449;19;883;-68
2022/12/03 13:22:53;;;;;;;;;;;;;;;;;;7371308;19;822;-67
2022/12/03 13:25:22;;;;;;;;;;;;;;;;;;7370838;19;1361;-69
2022/12/03 13:27:50;;;;;;;;;;;;;;;;;;7371414;19;772;-69
2022/12/03 13:33:22;;;;;;;;;;;;;;;;;;7372428;19;2037;-69
2022/12/03 13:35:51;;;;;;;;;;;;;;;;;;7372334;19;2077;-70
2022/12/03 13:38:19;;;;;;;;;;;;;;;;;;7369443;19;851;-70
2022/12/03 13:40:47;;;;;;;;;;;;;;;;;;7371717;19;723;-70
2022/12/03 13:43:13;;;;;;;;;;;;;;;;;;7374081;19;1819;-70
2022/12/03 13:45:41;;;;;;;;;;;;;;;;;;7373217;19;1793;-70
2022/12/03 13:48:09;;;;;;;;;;;;;;;;;;7371397;19;826;-70
2022/12/03 13:50:37;;;;;;;;;;;;;;;;;;7372729;19;815;-70
2022/12/03 13:53:06;;;;;;;;;;;;;;;;;;7370235;19;1835;-69
2022/12/03 13:55:34;;;;;;;;;;;;;;;;;;7370899;19;1264;-67
2022/12/03 13:58:02;;;;;;;;;;;;;;;;;;7371033;19;846;-69
2022/12/03 14:00:31;;;;;;;;;;;;;;;;;;7372352;19;865;-68
2022/12/03 14:02:59;;;;;;;;;;;;;;;;;;7375126;19;785;-70
2022/12/03 14:05:27;;;;;;;;;;;;;;;;;;7372786;19;1334;-69
2022/12/03 14:07:57;;;;;;;;;;;;;;;;;;7372600;19;932;-68
2022/12/03 14:10:25;;;;;;;;;;;;;;;;;;7376567;19;1763;-69
2022/12/03 14:12:53;;;;;;;;;;;;;;;;;;7372038;19;1833;-67
2022/12/03 14:15:21;;;;;;;;;;;;;;;;;;7368653;19;1274;-69
2022/12/03 14:17:49;;;;;;;;;;;;;;;;;;7371593;19;873;-68
2022/12/03 14:20:18;;;;;;;;;;;;;;;;;;7372732;19;813;-68
2022/12/03 14:22:46;;;;;;;;;;;;;;;;;;7371405;19;957;-69
2022/12/03 14:25:14;;;;;;;;;;;;;;;;;;7368047;19;1356;-69
2022/12/03 14:27:42;;;;;;;;;;;;;;;;;;7370169;19;805;-69
2022/12/03 14:30:10;;;;;;;;;;;;;;;;;;7372168;19;1587;-67
2022/12/03 14:32:38;;;;;;;;;;;;;;;;;;7368308;19;1837;-68
2022/12/03 14:35:07;;;;;;;;;;;;;;;;;;7368805;19;1837;-68
2022/12/03 14:37:35;;;;;;;;;;;;;;;;;;7368268;19;1698;-68
2022/12/03 14:40:03;;;;;;;;;;;;;;;;;;7369541;19;794;-67
2022/12/03 14:42:31;;;;;;;;;;;;;;;;;;7370261;19;841;-69
2022/12/03 14:44:59;;;;;;;;;;;;;;;;;;7368216;19;1306;-67
2022/12/03 14:47:28;;;;;;;;;;;;;;;;;;7369512;19;793;-68
2022/12/03 14:49:56;;;;;;;;;;;;;;;;;;7368221;19;908;-67
2022/12/03 14:52:24;;;;;;;;;;;;;;;;;;7371364;19;1861;-68
2022/12/03 14:54:52;;;;;;;;;;;;;;;;;;7367944;19;1333;-68
2022/12/03 14:57:20;;;;;;;;;;;;;;;;;;7369593;19;814;-68
2022/12/03 14:59:48;;;;;;;;;;;;;;;;;;7368495;19;783;-68
2022/12/03 15:02:16;;;;;;;;;;;;;;;;;;7371122;19;1834;-69
2022/12/03 15:04:45;;;;;;;;;;;;;;;;;;7373414;19;1590;-69
2022/12/03 15:07:13;;;;;;;;;;;;;;;;;;7370030;19;825;-69
2022/12/03 15:09:41;;;;;;;;;;;;;;;;;;7368595;19;901;-65
2022/12/03 15:12:09;;;;;;;;;;;;;;;;;;7371006;19;1793;-68
2022/12/03 15:14:37;;;;;;;;;;;;;;;;;;7371172;19;1860;-66
2022/12/03 15:17:05;;;;;;;;;;;;;;;;;;7369702;19;782;-65
2022/12/03 15:19:33;;;;;;;;;;;;;;;;;;7367537;19;808;-66
2022/12/03 15:22:02;;;;;;;;;;;;;;;;;;7367710;19;866;-68
2022/12/03 15:24:30;;;;;;;;;;;;;;;;;;7370109;19;1349;-70
2022/12/03 15:26:58;;;;;;;;;;;;;;;;;;7369134;19;896;-67
2022/12/03 15:29:26;;;;;;;;;;;;;;;;;;7367162;19;2110;-67
2022/12/03 15:31:54;;;;;;;;;;;;;;;;;;7374676;19;867;-69
2022/12/03 15:34:22;;;;;;;;;;;;;;;;;;7366931;19;1845;-67
2022/12/03 15:36:51;;;;;;;;;;;;;;;;;;7369533;19;933;-68
2022/12/03 15:39:20;;;;;;;;;;;;;;;;;;7367573;19;821;-69
2022/12/03 15:41:48;;;;;;;;;;;;;;;;;;7369775;19;1689;-69
2022/12/03 15:44:16;;;;;;;;;;;;;;;;;;7366940;19;1270;-69
2022/12/03 15:46:44;;;;;;;;;;;;;;;;;;7370367;19;1801;-69
2022/12/03 15:49:12;;;;;;;;;;;;;;;;;;7370152;19;1773;-69
2022/12/03 15:51:40;;;;;;;;;;;;;;;;;;7367956;19;858;-69
2022/12/03 15:54:10;;;;;;;;;;;;;;;;;;7366896;19;1857;-72
2022/12/03 15:56:39;;;;;;;;;;;;;;;;;;7370013;19;1769;-69
2022/12/03 15:59:07;;;;;;;;;;;;;;;;;;7365989;19;883;-71
2022/12/03 16:01:35;;;;;;;;;;;;;;;;;;7367334;19;787;-71
2022/12/03 16:04:03;;;;;;;;;;;;;;;;;;7370514;19;1817;-71
2022/12/03 16:06:31;;;;;;;;;;;;;;;;;;7363567;19;1294;-69
2022/12/03 16:08:59;;;;;;;;;;;;;;;;;;7365564;19;936;-71
2022/12/03 16:11:28;;;;;;;;;;;;;;;;;;7366442;19;2166;-70
2022/12/03 16:13:56;;;;;;;;;;;;;;;;;;7367042;19;1842;-70
2022/12/03 16:16:24;;;;;;;;;;;;;;;;;;7363927;19;1435;-72
2022/12/03 16:18:52;;;;;;;;;;;;;;;;;;7364810;19;830;-70
2022/12/03 16:21:20;;;;;;;;;;;;;;;;;;7365681;19;849;-71
2022/12/03 16:23:49;;;;;;;;;;;;;;;;;;7366121;19;830;-69
2022/12/03 16:26:17;;;;;;;;;;;;;;;;;;7367571;19;1780;-72
2022/12/03 16:28:45;;;;;;;;;;;;;;;;;;7366147;19;1763;-69
2022/12/03 16:31:13;;;;;;;;;;;;;;;;;;7365966;19;859;-71
2022/12/03 16:33:41;;;;;;;;;;;;;;;;;;7365097;19;1842;-71
2022/12/03 16:36:09;;;;;;;;;;;;;;;;;;7366249;19;1784;-70
2022/12/03 16:38:37;;;;;;;;;;;;;;;;;;7369173;19;1711;-73
2022/12/03 16:41:06;;;;;;;;;;;;;;;;;;7376130;19;1750;-72
2022/12/03 16:43:37;;;;;;;;;;;;;;;;;;7373709;19;1775;-72
2022/12/03 16:46:19;;;;;;;;;;;;;;;;;;7370392;19;1322;-69
2022/12/03 16:48:47;;;;;;;;;;;;;;;;;;7371597;19;730;-69
2022/12/03 16:51:15;;;;;;;;;;;;;;;;;;7371421;19;818;-68
2022/12/03 16:53:44;;;;;;;;;;;;;;;;;;7370676;19;1849;-68
2022/12/03 16:56:12;;;;;;;;;;;;;;;;;;7369722;19;1273;-68
2022/12/03 16:58:40;;;;;;;;;;;;;;;;;;7371371;19;1773;-67
2022/12/03 17:01:08;;;;;;;;;;;;;;;;;;7371308;19;930;-68
2022/12/03 17:03:36;;;;;;;;;;;;;;;;;;7371632;19;860;-68
2022/12/03 17:06:04;;;;;;;;;;;;;;;;;;7372835;19;1821;-68
2022/12/03 17:08:32;;;;;;;;;;;;;;;;;;7371297;19;862;-70
2022/12/03 17:11:03;;;;;;;;;;;;;;;;;;7376178;19;787;-69
2022/12/03 17:13:31;;;;;;;;;;;;;;;;;;7383478;19;1834;-70
2022/12/03 17:15:59;;;;;;;;;;;;;;;;;;7381776;19;1290;-70
2022/12/03 17:18:27;;;;;;;;;;;;;;;;;;7386199;19;815;-69
2022/12/03 17:20:55;;;;;;;;;;;;;;;;;;7387153;19;824;-70
2022/12/03 17:23:24;;;;;;;;;;;;;;;;;;7385627;19;1027;-70
2022/12/03 17:25:52;;;;;;;;;;;;;;;;;;7376784;19;1246;-70
2022/12/03 17:28:20;;;;;;;;;;;;;;;;;;7371241;19;843;-70
2022/12/03 17:30:48;;;;;;;;;;;;;;;;;;7371406;19;822;-70
2022/12/03 17:33:16;;;;;;;;;;;;;;;;;;7373524;19;1834;-69
2022/12/03 17:35:45;;;;;;;;;;;;;;;;;;7370571;19;1266;-70
2022/12/03 17:38:13;;;;;;;;;;;;;;;;;;7369714;19;809;-69